Station History

Weather Underground - logo

Station Historical Data
Daily Summary for February 13, 2018 Units:  English    Metric   Both
« Previous Day
Next Day »
Daily Weekly Monthly Yearly Custom
  High: Low: Average:
Temperature: TemperatureF °F 33.9 °F 49.7 °F
Dew Point: DewpointF °F 31.3 °F 36.6 °F
Humidity: Humidity % 37 % 64 %
Wind Speed: WindSpeedMPH mph 0.0 mph 1.2 mph
Wind Gust: WindSpeedGustMPH mph - -
Wind:- - WNW
Pressure: PressureIn in 29.99 in -
Precipitation: 0.00 in    
Historical Graphs
 
 
Tabular Data for February 13, 2018
Time Temperature Dew Point Pressure Wind Wind Speed Wind Gust Humidity Rainfall Rate (Hourly)
TemperatureF °F DewpointF °F PressureIn in Calm     Humidity % HourlyPrecipIn in
00:03 40.0 °F 36.7 °F 30.00 in Calm     88 % 0.00 in
00:08 39.7 °F 36.4 °F 30.00 in Calm     88 % 0.00 in
00:13 39.5 °F 36.2 °F 29.99 in Calm     88 % 0.00 in
00:18 39.3 °F 36.0 °F 29.99 in Calm     88 % 0.00 in
00:23 39.2 °F 35.9 °F 30.00 in Calm     88 % 0.00 in
00:28 39.1 °F 36.1 °F 30.00 in Calm     89 % 0.00 in
00:33 39.2 °F 36.5 °F 30.00 in Calm     90 % 0.00 in
00:38 39.3 °F 36.6 °F 30.00 in Calm     90 % 0.00 in
00:43 39.3 °F 36.6 °F 30.00 in Calm     90 % 0.00 in
00:48 39.3 °F 36.3 °F 30.00 in Calm     89 % 0.00 in
00:53 39.3 °F 36.6 °F 30.00 in Calm     90 % 0.00 in
00:58 39.6 °F 36.9 °F 30.01 in Calm     90 % 0.00 in
01:03 40.0 °F 37.3 °F 30.01 in Calm     90 % 0.00 in
01:08 40.1 °F 37.1 °F 30.01 in Calm     89 % 0.00 in
01:14 40.1 °F 37.1 °F 30.01 in NNE 1.2 mph   89 % 0.00 in
01:19 40.0 °F 36.7 °F 30.01 in Calm     88 % 0.00 in
01:24 40.0 °F 37.0 °F 30.01 in Calm     89 % 0.00 in
01:29 40.1 °F 37.1 °F 30.01 in Calm     89 % 0.00 in
01:34 40.1 °F 36.8 °F 30.02 in Calm     88 % 0.00 in
01:39 39.9 °F 36.6 °F 30.02 in Calm     88 % 0.00 in
01:44 39.0 °F 35.5 °F 30.02 in Calm     87 % 0.00 in
01:49 38.6 °F 35.4 °F 30.02 in Calm     88 % 0.00 in
01:54 38.3 °F 35.1 °F 30.02 in Calm     88 % 0.00 in
01:59 38.1 °F 34.9 °F 30.02 in Calm     88 % 0.00 in
02:04 37.7 °F 34.5 °F 30.02 in Calm     88 % 0.00 in
02:09 37.5 °F 34.6 °F 30.02 in Calm     89 % 0.00 in
02:14 37.2 °F 34.3 °F 30.02 in Calm     89 % 0.00 in
02:19 37.1 °F 34.4 °F 30.03 in Calm     90 % 0.00 in
02:24 37.2 °F 34.8 °F 30.03 in Calm     91 % 0.00 in
02:29 37.2 °F 34.8 °F 30.03 in Calm     91 % 0.00 in
02:34 37.1 °F 34.4 °F 30.03 in Calm     90 % 0.00 in
02:39 36.9 °F 34.2 °F 30.03 in Calm     90 % 0.00 in
02:44 36.3 °F 33.4 °F 30.03 in Calm     89 % 0.00 in
02:49 36.2 °F 33.5 °F 30.04 in Calm     90 % 0.00 in
02:54 36.2 °F 33.5 °F 30.03 in Calm     90 % 0.00 in
02:59 36.1 °F 33.7 °F 30.03 in Calm     91 % 0.00 in
03:04 36.0 °F 33.6 °F 30.04 in Calm     91 % 0.00 in
03:09 36.0 °F 33.6 °F 30.04 in Calm     91 % 0.00 in
03:14 35.9 °F 33.5 °F 30.04 in Calm     91 % 0.00 in
03:19 35.9 °F 33.5 °F 30.04 in Calm     91 % 0.00 in
03:24 36.1 °F 34.0 °F 30.04 in Calm     92 % 0.00 in
03:29 36.3 °F 34.2 °F 30.04 in Calm     92 % 0.00 in
03:34 36.3 °F 34.2 °F 30.04 in Calm     92 % 0.00 in
03:39 36.4 °F 34.3 °F 30.05 in Calm     92 % 0.00 in
03:44 36.3 °F 34.2 °F 30.05 in Calm     92 % 0.00 in
03:49 36.4 °F 34.3 °F 30.06 in Calm     92 % 0.00 in
03:54 36.7 °F 34.6 °F 30.06 in Calm     92 % 0.00 in
03:59 37.0 °F 34.9 °F 30.06 in Calm     92 % 0.00 in
04:04 37.3 °F 35.2 °F 30.06 in Calm     92 % 0.00 in
04:09 37.6 °F 35.5 °F 30.06 in Calm     92 % 0.00 in
04:14 37.6 °F 35.2 °F 30.06 in Calm     91 % 0.00 in
04:19 37.5 °F 34.8 °F 30.07 in Calm     90 % 0.00 in
04:24 37.6 °F 35.2 °F 30.07 in Calm     91 % 0.00 in
04:29 37.2 °F 34.5 °F 30.07 in Calm     90 % 0.00 in
04:34 37.5 °F 35.1 °F 30.07 in Calm     91 % 0.00 in
04:39 37.6 °F 35.2 °F 30.07 in Calm     91 % 0.00 in
04:44 37.7 °F 35.3 °F 30.07 in Calm     91 % 0.00 in
04:49 37.7 °F 35.0 °F 30.07 in Calm     90 % 0.00 in
04:54 37.7 °F 35.0 °F 30.07 in Calm     90 % 0.00 in
04:59 37.6 °F 34.9 °F 30.07 in Calm     90 % 0.00 in
05:04 37.7 °F 35.0 °F 30.07 in Calm     90 % 0.00 in
05:09 37.6 °F 34.7 °F 30.08 in Calm     89 % 0.00 in
05:14 36.8 °F 33.6 °F 30.08 in Calm     88 % 0.00 in
05:19 35.9 °F 33.0 °F 30.08 in Calm     89 % 0.00 in
05:24 35.7 °F 33.1 °F 30.08 in Calm     90 % 0.00 in
05:29 35.7 °F 33.3 °F 30.09 in Calm     91 % 0.00 in
05:34 35.7 °F 33.3 °F 30.09 in Calm     91 % 0.00 in
05:39 35.5 °F 33.1 °F 30.09 in Calm     91 % 0.00 in
05:44 35.6 °F 33.2 °F 30.09 in Calm     91 % 0.00 in
05:49 35.5 °F 33.1 °F 30.09 in Calm     91 % 0.00 in
05:54 35.3 °F 32.9 °F 30.09 in Calm     91 % 0.00 in
05:59 34.9 °F 32.3 °F 30.09 in Calm     90 % 0.00 in
06:04 34.5 °F 31.9 °F 30.10 in Calm     90 % 0.00 in
06:09 34.3 °F 31.9 °F 30.10 in Calm     91 % 0.00 in
06:14 34.7 °F 32.6 °F 30.10 in Calm     92 % 0.00 in
06:19 34.8 °F 32.7 °F 30.10 in Calm     92 % 0.00 in
06:24 34.6 °F 32.2 °F 30.10 in Calm     91 % 0.00 in
06:29 34.5 °F 32.1 °F 30.10 in Calm     91 % 0.00 in
06:34 34.5 °F 32.1 °F 30.11 in Calm     91 % 0.00 in
06:39 34.3 °F 31.9 °F 30.11 in Calm     91 % 0.00 in
06:44 33.9 °F 31.3 °F 30.11 in Calm     90 % 0.00 in
06:49 34.0 °F 31.4 °F 30.12 in Calm     90 % 0.00 in
06:54 34.0 °F 31.4 °F 30.12 in Calm     90 % 0.00 in
06:59 34.4 °F 32.0 °F 30.12 in Calm     91 % 0.00 in
07:04 34.9 °F 32.5 °F 30.12 in Calm     91 % 0.00 in
07:09 35.0 °F 32.4 °F 30.12 in Calm     90 % 0.00 in
07:14 35.1 °F 32.7 °F 30.12 in Calm     91 % 0.00 in
07:19 35.3 °F 32.9 °F 30.13 in Calm     91 % 0.00 in
07:24 35.7 °F 33.6 °F 30.13 in Calm     92 % 0.00 in
07:29 36.2 °F 33.8 °F 30.13 in Calm     91 % 0.00 in
07:34 36.6 °F 34.2 °F 30.13 in Calm     91 % 0.00 in
07:39 37.0 °F 34.6 °F 30.14 in Calm     91 % 0.00 in
07:44 37.6 °F 35.2 °F 30.14 in Calm     91 % 0.00 in
07:49 38.7 °F 36.3 °F 30.14 in Calm     91 % 0.00 in
07:54 40.9 °F 38.2 °F 30.15 in Calm     90 % 0.00 in
08:00 42.5 °F 38.9 °F 30.15 in Calm     87 % 0.00 in
08:05 43.7 °F 39.2 °F 30.15 in Calm     84 % 0.00 in
08:10 44.5 °F 39.3 °F 30.15 in Calm     82 % 0.00 in
08:15 45.2 °F 40.0 °F 30.15 in Calm     82 % 0.00 in
08:20 46.0 °F 40.5 °F 30.16 in Calm     81 % 0.00 in
08:25 46.9 °F 41.1 °F 30.16 in SE 1.2 mph 1.2 mph 80 % 0.00 in
08:30 47.7 °F 40.8 °F 30.16 in Calm     77 % 0.00 in
08:35 47.9 °F 41.0 °F 30.16 in Calm     77 % 0.00 in
08:40 47.8 °F 40.6 °F 30.16 in Calm     76 % 0.00 in
08:45 47.8 °F 41.3 °F 30.17 in Calm     78 % 0.00 in
08:50 48.2 °F 40.6 °F 30.17 in NW 1.2 mph 1.2 mph 75 % 0.00 in
08:55 48.4 °F 40.8 °F 30.17 in Calm     75 % 0.00 in
09:00 48.9 °F 40.6 °F 30.17 in West 1.2 mph   73 % 0.00 in
09:05 49.7 °F 40.7 °F 30.18 in Calm     71 % 0.00 in
09:10 50.1 °F 40.3 °F 30.17 in Calm     69 % 0.00 in
09:15 50.4 °F 40.2 °F 30.18 in Calm     68 % 0.00 in
09:20 51.1 °F 40.1 °F 30.18 in Calm     66 % 0.00 in
09:25 51.3 °F 41.1 °F 30.18 in Calm     68 % 0.00 in
09:30 51.9 °F 41.3 °F 30.18 in WNW 1.2 mph   67 % 0.00 in
09:35 52.1 °F 40.7 °F 30.18 in Calm     65 % 0.00 in
09:40 52.5 °F 41.1 °F 30.18 in West 1.2 mph   65 % 0.00 in
09:45 52.7 °F 40.5 °F 30.18 in WSW 1.2 mph 1.2 mph 63 % 0.00 in
09:50 53.1 °F 40.8 °F 30.18 in WNW 1.2 mph 1.2 mph 63 % 0.00 in
09:55 53.6 °F 39.6 °F 30.18 in NW 3.5 mph 3.5 mph 59 % 0.00 in
10:00 53.9 °F 39.9 °F 30.18 in NW 2.3 mph 2.3 mph 59 % 0.00 in
10:05 54.1 °F 40.1 °F 30.18 in WNW 1.0 mph 1.0 mph 59 % 0.00 in
10:10 54.3 °F 39.8 °F 30.18 in NW 3.5 mph 3.5 mph 58 % 0.00 in
10:15 54.5 °F 39.6 °F 30.18 in WNW 2.3 mph 2.3 mph 57 % 0.00 in
10:20 54.8 °F 39.4 °F 30.18 in NW 2.3 mph 2.3 mph 56 % 0.00 in
10:25 55.1 °F 39.2 °F 30.18 in West 1.2 mph 1.2 mph 55 % 0.00 in
10:30 55.6 °F 39.2 °F 30.18 in NW 2.3 mph 2.3 mph 54 % 0.00 in
10:35 55.9 °F 38.5 °F 30.17 in WNW 2.3 mph 2.3 mph 52 % 0.00 in
10:40 56.4 °F 39.5 °F 30.18 in NW 2.3 mph 2.3 mph 53 % 0.00 in
10:45 56.7 °F 39.3 °F 30.18 in WNW 2.3 mph 2.3 mph 52 % 0.00 in
10:50 57.1 °F 38.6 °F 30.17 in NW 1.2 mph 1.2 mph 50 % 0.00 in
10:55 57.2 °F 38.2 °F 30.17 in WNW 1.2 mph 1.2 mph 49 % 0.00 in
11:00 57.4 °F 37.9 °F 30.17 in West 3.5 mph 3.5 mph 48 % 0.00 in
11:05 57.7 °F 38.7 °F 30.17 in NW 3.5 mph 3.5 mph 49 % 0.00 in
11:10 58.2 °F 39.1 °F 30.17 in NW 2.3 mph 2.3 mph 49 % 0.00 in
11:15 58.4 °F 38.2 °F 30.17 in NNW 1.2 mph   47 % 0.00 in
11:20 59.0 °F 38.2 °F 30.17 in NW 3.5 mph 3.5 mph 46 % 0.00 in
11:25 59.3 °F 37.4 °F 30.16 in North 1.2 mph 1.2 mph 44 % 0.00 in
11:30 59.6 °F 38.8 °F 30.16 in NW 2.3 mph 2.3 mph 46 % 0.00 in
11:35 59.8 °F 39.5 °F 30.16 in NW 2.0 mph 2.0 mph 47 % 0.00 in
11:40 59.8 °F 38.4 °F 30.16 in NW 5.8 mph 5.8 mph 45 % 0.00 in
11:45 59.9 °F 38.5 °F 30.16 in Calm   0.1 mph 45 % 0.00 in
11:50 60.1 °F 39.2 °F 30.16 in Calm     46 % 0.00 in
11:55 60.4 °F 40.6 °F 30.16 in West 3.5 mph 3.5 mph 48 % 0.00 in
12:00 60.7 °F 40.3 °F 30.16 in WNW 3.5 mph 3.5 mph 47 % 0.00 in
12:05 60.4 °F 40.1 °F 30.15 in NW 3.5 mph 3.5 mph 47 % 0.00 in
12:10 60.5 °F 39.0 °F 30.15 in NNW 2.3 mph 2.3 mph 45 % 0.00 in
12:15 60.8 °F 40.4 °F 30.15 in SE 3.5 mph 3.5 mph 47 % 0.00 in
12:20 60.8 °F 40.4 °F 30.15 in Calm   0.4 mph 47 % 0.00 in
12:25 61.1 °F 40.7 °F 30.15 in North 3.5 mph 3.5 mph 47 % 0.00 in
12:30 61.3 °F 40.9 °F 30.15 in NW 3.5 mph 3.5 mph 47 % 0.00 in
12:35 61.6 °F 40.6 °F 30.14 in NW 3.5 mph 3.5 mph 46 % 0.00 in
12:40 61.5 °F 39.9 °F 30.14 in NW 4.6 mph 4.6 mph 45 % 0.00 in
12:45 61.3 °F 40.9 °F 30.14 in NNW 5.0 mph 5.0 mph 47 % 0.00 in
12:50 61.6 °F 39.5 °F 30.14 in NW 3.5 mph 3.5 mph 44 % 0.00 in
12:56 61.6 °F 39.5 °F 30.14 in WNW 3.5 mph 3.5 mph 44 % 0.00 in
13:01 61.7 °F 39.6 °F 30.14 in WNW 4.6 mph 4.6 mph 44 % 0.00 in
13:06 61.9 °F 39.7 °F 30.14 in WNW 3.5 mph 3.5 mph 44 % 0.00 in
13:11 62.1 °F 38.1 °F 30.14 in NW 3.5 mph 3.5 mph 41 % 0.00 in
13:16 62.1 °F 39.9 °F 30.14 in NW 6.9 mph 6.9 mph 44 % 0.00 in
13:21 62.2 °F 39.4 °F 30.13 in West 4.0 mph 4.0 mph 43 % 0.00 in
13:26 62.2 °F 39.4 °F 30.14 in NW 3.5 mph 3.5 mph 43 % 0.00 in
13:31 62.7 °F 39.3 °F 30.14 in NNW 6.0 mph 6.0 mph 42 % 0.00 in
13:36 62.6 °F 39.2 °F 30.13 in NW 6.0 mph 6.0 mph 42 % 0.00 in
13:41 62.5 °F 39.1 °F 30.13 in NW 3.5 mph 3.5 mph 42 % 0.00 in
13:46 62.6 °F 39.8 °F 30.13 in NW 4.0 mph 4.0 mph 43 % 0.00 in
13:51 62.7 °F 39.3 °F 30.13 in NNW 4.6 mph 4.6 mph 42 % 0.00 in
13:56 62.9 °F 39.4 °F 30.13 in NNW 5.0 mph 5.0 mph 42 % 0.00 in
14:01 62.5 °F 39.1 °F 30.13 in WNW 2.3 mph 2.3 mph 42 % 0.00 in
14:06 62.3 °F 39.5 °F 30.13 in WNW 3.5 mph 3.5 mph 43 % 0.00 in
14:11 62.3 °F 39.5 °F 30.13 in NNW 5.8 mph 5.8 mph 43 % 0.00 in
14:16 62.5 °F 39.7 °F 30.13 in WNW 4.6 mph 4.6 mph 43 % 0.00 in
14:21 62.4 °F 40.2 °F 30.13 in NW 3.5 mph 3.5 mph 44 % 0.00 in
14:26 62.8 °F 40.0 °F 30.13 in NW 3.5 mph 3.5 mph 43 % 0.00 in
14:31 62.8 °F 40.0 °F 30.13 in NW 3.5 mph 3.5 mph 43 % 0.00 in
14:36 62.9 °F 39.4 °F 30.13 in West 5.8 mph 5.8 mph 42 % 0.00 in
14:41 62.9 °F 39.4 °F 30.13 in NNW 3.5 mph 3.5 mph 42 % 0.00 in
14:46 63.1 °F 39.0 °F 30.13 in NNW 3.5 mph 3.5 mph 41 % 0.00 in
14:51 63.2 °F 37.8 °F 30.13 in NW 3.5 mph 3.5 mph 39 % 0.00 in
14:56 63.5 °F 39.4 °F 30.13 in NW 3.5 mph 3.5 mph 41 % 0.00 in
15:01 63.1 °F 39.6 °F 30.13 in WNW 3.0 mph 3.0 mph 42 % 0.00 in
15:06 63.4 °F 39.3 °F 30.13 in NNE 3.5 mph 3.5 mph 41 % 0.00 in
15:11 63.2 °F 39.1 °F 30.13 in WNW 5.8 mph 5.8 mph 41 % 0.00 in
15:16 63.3 °F 39.8 °F 30.13 in NW 6.9 mph 6.9 mph 42 % 0.00 in
15:21 63.0 °F 38.3 °F 30.13 in WNW 3.5 mph 3.5 mph 40 % 0.00 in
15:26 63.1 °F 39.6 °F 30.13 in NW 3.5 mph 3.5 mph 42 % 0.00 in
15:31 63.0 °F 38.9 °F 30.13 in WNW 3.0 mph 3.0 mph 41 % 0.00 in
15:36 62.9 °F 37.5 °F 30.13 in NW 4.6 mph 4.6 mph 39 % 0.00 in
15:41 62.4 °F 39.0 °F 30.13 in NW 3.5 mph 3.5 mph 42 % 0.00 in
15:46 62.1 °F 37.5 °F 30.13 in NNW 4.6 mph 4.6 mph 40 % 0.00 in
15:51 62.4 °F 38.4 °F 30.13 in NW 3.5 mph 3.5 mph 41 % 0.00 in
15:56 62.5 °F 37.2 °F 30.13 in NNW 3.5 mph 3.5 mph 39 % 0.00 in
16:01 62.5 °F 37.8 °F 30.13 in WNW 3.5 mph 3.5 mph 40 % 0.00 in
16:06 62.6 °F 37.3 °F 30.13 in WNW 5.8 mph 5.8 mph 39 % 0.00 in
16:11 62.6 °F 37.3 °F 30.13 in NW 3.5 mph 3.5 mph 39 % 0.00 in
16:16 62.4 °F 37.1 °F 30.13 in NW 2.3 mph 2.3 mph 39 % 0.00 in
16:21 62.5 °F 37.2 °F 30.13 in WNW 3.5 mph 3.5 mph 39 % 0.00 in
16:26 62.3 °F 37.0 °F 30.13 in WNW 2.3 mph 2.3 mph 39 % 0.00 in
16:31 62.2 °F 36.9 °F 30.13 in WNW 3.5 mph 3.5 mph 39 % 0.00 in
16:36 62.0 °F 36.7 °F 30.13 in NW 3.5 mph 3.5 mph 39 % 0.00 in
16:41 62.0 °F 36.7 °F 30.13 in NW 3.5 mph 3.5 mph 39 % 0.00 in
16:46 61.8 °F 36.6 °F 30.13 in NNW 3.0 mph 3.0 mph 39 % 0.00 in
16:51 61.7 °F 36.5 °F 30.13 in NNW 2.3 mph 2.3 mph 39 % 0.00 in
16:56 61.6 °F 35.7 °F 30.13 in West 3.5 mph 3.5 mph 38 % 0.00 in
17:01 61.4 °F 34.9 °F 30.13 in WNW 3.5 mph 3.5 mph 37 % 0.00 in
17:06 61.1 °F 35.3 °F 30.13 in NW 3.5 mph 3.5 mph 38 % 0.00 in
17:11 60.8 °F 35.7 °F 30.13 in NW 2.3 mph 2.3 mph 39 % 0.00 in
17:16 60.5 °F 36.0 °F 30.13 in NNW 2.3 mph 2.3 mph 40 % 0.00 in
17:21 60.4 °F 35.9 °F 30.13 in NW 2.3 mph 2.3 mph 40 % 0.00 in
17:26 60.2 °F 35.8 °F 30.14 in North 3.5 mph 3.5 mph 40 % 0.00 in
17:31 59.9 °F 35.5 °F 30.14 in WNW 3.5 mph 3.5 mph 40 % 0.00 in
17:36 59.5 °F 35.1 °F 30.14 in NW 2.3 mph   40 % 0.00 in
17:41 59.1 °F 35.4 °F 30.14 in WNW 1.2 mph   41 % 0.00 in
17:46 58.8 °F 35.1 °F 30.14 in NW 1.2 mph   41 % 0.00 in
17:51 58.4 °F 35.4 °F 30.14 in Calm     42 % 0.00 in
17:56 58.1 °F 35.1 °F 30.14 in Calm   0.2 mph 42 % 0.00 in
18:01 57.7 °F 35.3 °F 30.14 in WNW 1.0 mph 1.0 mph 43 % 0.00 in
18:06 57.3 °F 35.6 °F 30.14 in Calm   0.1 mph 44 % 0.00 in
18:11 56.9 °F 35.2 °F 30.14 in Calm     44 % 0.00 in
18:16 56.7 °F 35.6 °F 30.14 in Calm   0.1 mph 45 % 0.00 in
18:21 56.6 °F 35.5 °F 30.15 in Calm   0.1 mph 45 % 0.00 in
18:26 56.5 °F 35.4 °F 30.15 in Calm     45 % 0.00 in
18:31 56.3 °F 35.2 °F 30.15 in Calm     45 % 0.00 in
18:36 55.8 °F 35.3 °F 30.15 in Calm     46 % 0.00 in
18:41 55.2 °F 36.9 °F 30.15 in Calm     50 % 0.00 in
18:46 54.6 °F 37.3 °F 30.16 in Calm     52 % 0.00 in
18:51 53.6 °F 37.8 °F 30.16 in Calm     55 % 0.00 in
18:56 52.8 °F 37.1 °F 30.16 in Calm     55 % 0.00 in
19:01 52.3 °F 37.1 °F 30.16 in Calm     56 % 0.00 in
19:06 52.0 °F 37.2 °F 30.16 in Calm     57 % 0.00 in
19:11 51.8 °F 37.0 °F 30.16 in Calm     57 % 0.00 in
19:16 51.6 °F 37.3 °F 30.16 in Calm     58 % 0.00 in
19:22 51.8 °F 36.6 °F 30.16 in Calm     56 % 0.00 in
19:27 52.4 °F 36.7 °F 30.16 in Calm     55 % 0.00 in
19:32 52.7 °F 36.5 °F 30.17 in Calm     54 % 0.00 in
19:37 53.1 °F 36.4 °F 30.16 in Calm   0.1 mph 53 % 0.00 in
19:42 53.4 °F 36.7 °F 30.16 in Calm     53 % 0.00 in
19:47 53.5 °F 36.3 °F 30.16 in Calm     52 % 0.00 in
19:52 53.3 °F 36.6 °F 30.16 in Calm     53 % 0.00 in
19:57 52.9 °F 36.2 °F 30.16 in Calm     53 % 0.00 in
20:02 52.7 °F 36.0 °F 30.16 in Calm     53 % 0.00 in
20:07 52.4 °F 36.2 °F 30.17 in Calm     54 % 0.00 in
20:12 52.4 °F 36.2 °F 30.16 in Calm     54 % 0.00 in
20:17 52.4 °F 36.2 °F 30.16 in NW 1.2 mph 1.2 mph 54 % 0.00 in
20:22 52.4 °F 36.2 °F 30.16 in Calm     54 % 0.00 in
20:27 52.3 °F 36.1 °F 30.16 in Calm     54 % 0.00 in
20:32 52.3 °F 36.1 °F 30.16 in Calm     54 % 0.00 in
20:37 52.4 °F 36.2 °F 30.16 in NW 1.2 mph   54 % 0.00 in
20:42 52.6 °F 35.9 °F 30.16 in NW 1.2 mph 1.2 mph 53 % 0.00 in
20:47 52.8 °F 35.6 °F 30.16 in NW 1.2 mph 1.2 mph 52 % 0.00 in
20:52 52.8 °F 35.6 °F 30.16 in Calm     52 % 0.00 in
20:57 52.6 °F 35.9 °F 30.16 in Calm     53 % 0.00 in
21:02 52.5 °F 35.8 °F 30.16 in Calm     53 % 0.00 in
21:07 52.2 °F 36.0 °F 30.16 in Calm     54 % 0.00 in
21:12 51.8 °F 35.7 °F 30.16 in Calm     54 % 0.00 in
21:17 52.0 °F 35.9 °F 30.16 in NNW 2.3 mph 2.3 mph 54 % 0.00 in
21:22 52.4 °F 35.8 °F 30.16 in NW 3.5 mph 3.5 mph 53 % 0.00 in
21:27 52.5 °F 35.8 °F 30.16 in Calm     53 % 0.00 in
21:32 52.5 °F 35.8 °F 30.15 in NNW 3.5 mph 3.5 mph 53 % 0.00 in
21:37 52.6 °F 35.9 °F 30.15 in NW 2.3 mph 2.3 mph 53 % 0.00 in
21:42 52.6 °F 35.9 °F 30.15 in NW 3.5 mph 3.5 mph 53 % 0.00 in
21:47 52.3 °F 35.7 °F 30.15 in NW 1.2 mph 1.2 mph 53 % 0.00 in
21:52 52.2 °F 36.0 °F 30.15 in North 1.2 mph 1.2 mph 54 % 0.00 in
21:57 52.4 °F 35.8 °F 30.15 in NNW 1.2 mph 1.2 mph 53 % 0.00 in
22:02 52.4 °F 35.8 °F 30.15 in NW 3.5 mph 3.5 mph 53 % 0.00 in
22:07 52.4 °F 35.8 °F 30.15 in NW 1.2 mph 1.2 mph 53 % 0.00 in
22:12 52.4 °F 35.8 °F 30.16 in NW 1.2 mph   53 % 0.00 in
22:17 52.3 °F 35.7 °F 30.16 in WNW 1.2 mph   53 % 0.00 in
22:22 52.1 °F 35.9 °F 30.16 in Calm     54 % 0.00 in
22:27 51.9 °F 36.2 °F 30.16 in Calm     55 % 0.00 in
22:32 51.7 °F 36.0 °F 30.16 in Calm     55 % 0.00 in
22:37 51.5 °F 36.3 °F 30.16 in Calm     56 % 0.00 in
22:42 51.5 °F 36.3 °F 30.16 in Calm     56 % 0.00 in
22:47 51.5 °F 36.3 °F 30.16 in Calm     56 % 0.00 in
22:52 51.4 °F 36.2 °F 30.16 in Calm     56 % 0.00 in
22:57 51.2 °F 36.9 °F 30.16 in Calm     58 % 0.00 in
23:02 51.2 °F 36.5 °F 30.16 in Calm     57 % 0.00 in
23:07 51.2 °F 36.5 °F 30.16 in Calm   0.1 mph 57 % 0.00 in
23:12 51.1 °F 36.4 °F 30.16 in Calm     57 % 0.00 in
23:17 51.0 °F 36.7 °F 30.16 in Calm     58 % 0.00 in
23:22 50.8 °F 36.5 °F 30.16 in Calm     58 % 0.00 in
23:27 50.5 °F 36.7 °F 30.16 in Calm     59 % 0.00 in
23:32 50.0 °F 37.5 °F 30.16 in Calm     62 % 0.00 in
23:37 49.0 °F 37.3 °F 30.16 in Calm     64 % 0.00 in
23:42 48.2 °F 37.4 °F 30.16 in Calm     66 % 0.00 in
23:47 47.8 °F 37.4 °F 30.16 in Calm     67 % 0.00 in
23:52 47.6 °F 37.2 °F 30.16 in Calm     67 % 0.00 in
23:57 47.1 °F 37.4 °F 30.17 in Calm     69 % 0.00 in
Park Place, Exeter, Tulare County, California, USA
Compliments of Weather Underground - 2.75 mb